createdAt,value
2022-11-07T00:00:27.633Z,71.66
2022-11-07T00:01:29.183Z,72.00
2022-11-07T00:02:30.848Z,71.78
2022-11-07T00:03:32.349Z,71.75
2022-11-07T00:04:33.882Z,71.58
2022-11-07T00:05:35.361Z,71.44
2022-11-07T00:06:37.685Z,71.61
2022-11-07T00:07:39.276Z,71.94
2022-11-07T00:08:40.766Z,72.05
2022-11-07T00:09:42.307Z,72.15
2022-11-07T00:10:43.821Z,72.02
2022-11-07T00:11:45.298Z,71.93
2022-11-07T00:12:46.779Z,71.77
2022-11-07T00:13:48.254Z,71.82
2022-11-07T00:14:49.786Z,71.23
2022-11-07T00:15:51.297Z,71.31
2022-11-07T00:16:52.749Z,71.23
2022-11-07T00:17:54.228Z,71.17
2022-11-07T00:18:55.756Z,70.92
2022-11-07T00:19:57.243Z,70.90
2022-11-07T00:21:05.202Z,70.43
2022-11-07T00:22:06.697Z,70.39
2022-11-07T00:23:08.149Z,70.19
2022-11-07T00:24:09.695Z,69.89
2022-11-07T00:25:11.191Z,69.72
2022-11-07T00:26:13.266Z,69.87
2022-11-07T00:27:14.773Z,69.57
2022-11-07T00:28:16.393Z,69.48
2022-11-07T00:29:18.542Z,69.59
2022-11-07T00:30:20.029Z,69.56
2022-11-07T00:31:21.519Z,69.79
2022-11-07T00:32:23.035Z,70.01
2022-11-07T00:33:24.535Z,70.03
2022-11-07T00:34:26.020Z,69.53
2022-11-07T00:35:27.494Z,69.62
2022-11-07T00:36:29.061Z,69.70
2022-11-07T00:37:30.590Z,70.18
2022-11-07T00:38:32.059Z,70.22
2022-11-07T00:39:33.565Z,70.14
2022-11-07T00:40:35.041Z,70.11
2022-11-07T00:41:36.499Z,70.08
2022-11-07T00:42:37.999Z,70.36
2022-11-07T00:43:39.457Z,70.11
2022-11-07T00:44:41.115Z,69.93
2022-11-07T00:45:42.570Z,70.14
2022-11-07T00:46:44.067Z,70.00
2022-11-07T00:47:45.614Z,70.11
2022-11-07T00:48:47.299Z,70.17
2022-11-07T00:49:48.777Z,70.15
2022-11-07T00:50:50.237Z,69.98
2022-11-07T00:51:51.670Z,70.30
2022-11-07T00:52:53.176Z,70.22
2022-11-07T00:53:54.824Z,70.07
2022-11-07T00:54:56.294Z,70.01
2022-11-07T00:56:04.091Z,69.99
2022-11-07T00:57:05.571Z,69.77
2022-11-07T00:58:11.220Z,69.81
2022-11-07T00:59:15.294Z,69.76
2022-11-07T01:00:16.796Z,69.92
2022-11-07T01:01:22.364Z,70.03
2022-11-07T01:02:24.155Z,70.03
2022-11-07T01:03:44.432Z,70.23
2022-11-07T01:05:04.373Z,70.23
2022-11-07T01:06:05.996Z,70.91
2022-11-07T01:07:07.550Z,70.71
2022-11-07T01:08:09.030Z,70.58
2022-11-07T01:09:14.654Z,70.52
2022-11-07T01:10:16.141Z,70.83
2022-11-07T01:11:17.660Z,70.82
2022-11-07T01:12:19.120Z,70.88
2022-11-07T01:13:20.647Z,71.11
2022-11-07T01:14:22.244Z,71.08
2022-11-07T01:15:23.733Z,71.37
2022-11-07T01:16:25.351Z,71.25
2022-11-07T01:17:26.809Z,71.14
2022-11-07T01:18:28.262Z,71.28
2022-11-07T01:19:29.773Z,71.36
2022-11-07T01:20:31.278Z,71.59
2022-11-07T01:21:32.817Z,71.70
2022-11-07T01:22:34.489Z,71.35
2022-11-07T01:23:35.956Z,71.80
2022-11-07T01:24:37.481Z,71.73
2022-11-07T01:25:39.094Z,71.72
2022-11-07T01:26:40.794Z,71.82
2022-11-07T01:27:42.334Z,72.08
2022-11-07T01:28:43.794Z,72.16
2022-11-07T01:29:45.436Z,72.37
2022-11-07T01:30:46.906Z,72.52
2022-11-07T01:31:48.454Z,72.62
2022-11-07T01:32:50.042Z,72.34
2022-11-07T01:33:51.525Z,72.46
2022-11-07T01:34:53.018Z,72.22
2022-11-07T01:35:54.530Z,72.53
2022-11-07T01:36:56.051Z,72.78
2022-11-07T01:37:57.504Z,73.03
2022-11-07T01:38:59.093Z,72.41
2022-11-07T01:40:00.538Z,72.55
2022-11-07T01:41:20.867Z,73.07
2022-11-07T01:42:22.476Z,73.05
2022-11-07T01:43:25.597Z,73.19
2022-11-07T01:44:27.052Z,73.24
2022-11-07T01:45:29.619Z,73.64
2022-11-07T01:46:32.051Z,73.80
2022-11-07T01:47:35.272Z,74.09
2022-11-07T01:48:36.778Z,74.13
2022-11-07T01:49:38.411Z,74.17
2022-11-07T01:50:39.891Z,74.04
2022-11-07T01:51:46.034Z,73.88
2022-11-07T01:52:47.699Z,73.54
2022-11-07T01:53:49.322Z,73.31
2022-11-07T01:54:53.447Z,73.44
2022-11-07T01:55:54.901Z,73.09
2022-11-07T01:56:57.259Z,73.64
2022-11-07T01:58:02.125Z,73.47
2022-11-07T01:59:03.629Z,73.26
2022-11-07T02:00:07.366Z,73.61
2022-11-07T02:01:08.861Z,73.63
2022-11-07T02:02:10.502Z,73.54
2022-11-07T02:03:13.262Z,73.18
2022-11-07T02:04:14.959Z,73.41
2022-11-07T02:05:17.988Z,73.65
2022-11-07T02:06:21.456Z,73.62
2022-11-07T02:07:23.304Z,73.58
2022-11-07T02:08:25.120Z,73.70
2022-11-07T02:09:26.615Z,73.62
2022-11-07T02:10:28.129Z,73.53
2022-11-07T02:11:29.606Z,74.06
2022-11-07T02:12:31.150Z,73.66
2022-11-07T02:13:32.661Z,73.49
2022-11-07T02:14:34.158Z,73.80
2022-11-07T02:15:35.973Z,74.29
2022-11-07T02:16:37.557Z,73.84
2022-11-07T02:17:39.086Z,73.73
2022-11-07T02:18:40.567Z,73.13
2022-11-07T02:19:45.647Z,73.53
2022-11-07T02:20:47.158Z,73.10
2022-11-07T02:21:57.377Z,73.50
2022-11-07T02:23:26.573Z,73.69
2022-11-07T02:24:28.853Z,73.73
2022-11-07T02:25:30.327Z,74.25
2022-11-07T02:26:31.814Z,74.49
2022-11-07T02:27:33.422Z,74.49
2022-11-07T02:28:34.960Z,74.88
2022-11-07T02:29:36.727Z,75.11
2022-11-07T02:30:39.018Z,75.24
2022-11-07T02:31:40.501Z,75.27
2022-11-07T02:32:42.031Z,75.66
2022-11-07T02:33:43.507Z,75.66
2022-11-07T02:34:47.591Z,75.64
2022-11-07T02:35:49.813Z,76.05
2022-11-07T02:36:51.440Z,76.04
2022-11-07T02:37:52.989Z,75.83
2022-11-07T02:38:57.581Z,76.47
2022-11-07T02:39:59.961Z,76.54
2022-11-07T02:41:08.469Z,76.59
2022-11-07T02:42:10.027Z,76.39
2022-11-07T02:43:11.875Z,76.42
2022-11-07T02:44:13.599Z,76.74
2022-11-07T02:45:16.449Z,76.70
2022-11-07T02:46:18.005Z,76.61
2022-11-07T02:47:19.511Z,76.19
2022-11-07T02:48:21.005Z,75.79
2022-11-07T02:49:22.500Z,75.88
2022-11-07T02:50:24.056Z,76.02
2022-11-07T02:51:25.766Z,76.30
2022-11-07T02:52:27.366Z,76.08
2022-11-07T02:53:28.875Z,76.00
2022-11-07T02:54:30.419Z,75.85
2022-11-07T02:55:31.925Z,75.71
2022-11-07T02:56:33.368Z,75.98
2022-11-07T02:57:34.934Z,75.72
2022-11-07T02:58:36.426Z,75.82
2022-11-07T02:59:37.956Z,75.33
2022-11-07T03:00:39.405Z,75.68
2022-11-07T03:01:40.962Z,75.47
2022-11-07T03:02:47.423Z,75.38
2022-11-07T03:03:49.426Z,75.24
2022-11-07T03:04:51.161Z,74.76
2022-11-07T03:05:52.672Z,74.83
2022-11-07T03:06:54.136Z,74.90
2022-11-07T03:07:55.657Z,74.74
2022-11-07T03:08:57.118Z,74.54
2022-11-07T03:09:58.573Z,74.66
2022-11-07T03:11:00.150Z,74.64
2022-11-07T03:12:02.141Z,74.66
2022-11-07T03:13:04.282Z,74.56
2022-11-07T03:14:05.789Z,74.40
2022-11-07T03:15:07.674Z,74.16
2022-11-07T03:16:09.758Z,74.59
2022-11-07T03:17:11.272Z,74.90
2022-11-07T03:18:12.743Z,74.79
2022-11-07T03:19:14.225Z,74.66
2022-11-07T03:20:16.012Z,74.68
2022-11-07T03:21:17.569Z,75.12
2022-11-07T03:22:19.115Z,75.03
2022-11-07T03:23:20.553Z,74.94
2022-11-07T03:24:22.093Z,74.80
2022-11-07T03:25:23.551Z,74.58
2022-11-07T03:26:25.785Z,74.70
2022-11-07T03:27:27.339Z,74.59
2022-11-07T03:28:28.886Z,74.56
2022-11-07T03:29:30.374Z,74.20
2022-11-07T03:30:31.897Z,74.37
2022-11-07T03:31:33.392Z,74.84
2022-11-07T03:32:34.966Z,75.37
2022-11-07T03:33:37.400Z,74.80
2022-11-07T03:34:38.855Z,74.51
2022-11-07T03:35:40.463Z,74.33
2022-11-07T03:36:41.938Z,74.45
2022-11-07T03:37:44.947Z,74.37
2022-11-07T03:38:46.450Z,74.63
2022-11-07T03:39:48.011Z,74.48
2022-11-07T03:40:49.479Z,74.29
2022-11-07T03:41:51.197Z,74.11
2022-11-07T03:42:52.778Z,74.12
2022-11-07T03:43:54.253Z,74.02
2022-11-07T03:44:55.711Z,74.03
2022-11-07T03:45:57.224Z,74.22
2022-11-07T03:46:58.721Z,74.58
2022-11-07T03:48:00.172Z,74.36
2022-11-07T03:49:01.693Z,74.37
2022-11-07T03:50:03.375Z,74.65
2022-11-07T03:51:05.301Z,74.55
2022-11-07T03:52:06.797Z,74.38
2022-11-07T03:53:08.288Z,74.50
2022-11-07T03:54:10.416Z,74.27
2022-11-07T03:55:12.090Z,74.34
2022-11-07T03:56:13.714Z,74.61
2022-11-07T03:57:15.197Z,74.88
2022-11-07T03:58:16.672Z,74.58
2022-11-07T03:59:18.179Z,74.67
2022-11-07T04:00:19.658Z,74.93
2022-11-07T04:01:21.197Z,75.04
2022-11-07T04:02:25.818Z,75.16
2022-11-07T04:03:27.418Z,75.58
2022-11-07T04:04:28.864Z,75.65
2022-11-07T04:05:30.683Z,75.43
2022-11-07T04:06:32.145Z,75.37
2022-11-07T04:07:33.619Z,74.99
2022-11-07T04:08:35.271Z,75.01
2022-11-07T04:09:36.736Z,74.99
2022-11-07T04:10:38.246Z,74.81
2022-11-07T04:11:58.526Z,74.94
2022-11-07T04:13:18.489Z,74.76
2022-11-07T04:14:38.366Z,74.63
2022-11-07T04:15:58.661Z,74.85
2022-11-07T04:17:18.644Z,74.71
2022-11-07T04:18:20.173Z,74.77
2022-11-07T04:19:21.732Z,74.71
2022-11-07T04:20:23.179Z,74.75
2022-11-07T04:21:24.689Z,74.63
2022-11-07T04:22:26.259Z,74.46
2022-11-07T04:23:27.714Z,74.59
2022-11-07T04:24:29.213Z,74.32
2022-11-07T04:25:49.421Z,74.42
2022-11-07T04:27:09.654Z,74.33
2022-11-07T04:28:11.214Z,74.30
2022-11-07T04:29:12.712Z,74.15
2022-11-07T04:30:26.890Z,74.38
2022-11-07T04:31:28.399Z,74.09
2022-11-07T04:32:29.854Z,73.89
2022-11-07T04:33:31.380Z,74.23
2022-11-07T04:34:33.206Z,74.06
2022-11-07T04:35:34.741Z,74.14
2022-11-07T04:36:36.272Z,74.31
2022-11-07T04:37:37.771Z,74.76
2022-11-07T04:38:39.236Z,74.99
2022-11-07T04:39:40.767Z,75.20
2022-11-07T04:40:42.219Z,75.26
2022-11-07T04:41:43.687Z,75.51
2022-11-07T04:42:45.266Z,75.07
2022-11-07T04:43:46.772Z,75.05
2022-11-07T04:44:48.261Z,75.38
2022-11-07T04:45:49.801Z,75.92
2022-11-07T04:46:51.238Z,75.87
2022-11-07T04:47:52.789Z,75.99
2022-11-07T04:48:54.264Z,75.95
2022-11-07T04:49:55.778Z,75.86
2022-11-07T04:50:57.639Z,76.27
2022-11-07T04:51:59.226Z,76.01
2022-11-07T04:53:00.685Z,76.04
2022-11-07T04:54:02.198Z,76.08
2022-11-07T04:55:03.830Z,75.54
2022-11-07T04:56:05.413Z,75.35
2022-11-07T04:57:06.906Z,75.13
2022-11-07T04:58:08.456Z,75.13
2022-11-07T04:59:09.991Z,74.84
2022-11-07T05:00:11.666Z,75.01
2022-11-07T05:01:13.095Z,74.97
2022-11-07T05:02:14.781Z,74.98
2022-11-07T05:03:16.750Z,75.29
2022-11-07T05:04:18.500Z,75.64
2022-11-07T05:05:20.113Z,75.68
2022-11-07T05:06:21.946Z,75.75
2022-11-07T05:07:23.424Z,75.71
2022-11-07T05:08:25.011Z,75.79
2022-11-07T05:09:27.380Z,76.08
2022-11-07T05:10:29.098Z,76.10
2022-11-07T05:11:30.586Z,76.14
2022-11-07T05:12:32.109Z,75.97
2022-11-07T05:13:33.619Z,75.74
2022-11-07T05:14:35.762Z,75.62
2022-11-07T05:15:37.223Z,76.00
2022-11-07T05:16:38.869Z,75.73
2022-11-07T05:17:40.353Z,75.32
2022-11-07T05:18:41.826Z,75.10
2022-11-07T05:19:43.456Z,74.99
2022-11-07T05:20:44.933Z,75.08
2022-11-07T05:21:46.558Z,75.18
2022-11-07T05:23:06.620Z,75.38
2022-11-07T05:24:08.089Z,76.01
2022-11-07T05:25:09.786Z,75.93
2022-11-07T05:26:11.226Z,75.71
2022-11-07T05:27:19.058Z,75.82
2022-11-07T05:28:29.950Z,75.89
2022-11-07T05:29:35.464Z,75.79
2022-11-07T05:30:40.752Z,75.80
2022-11-07T05:31:42.207Z,75.89
2022-11-07T05:32:43.699Z,75.97
2022-11-07T05:33:45.136Z,76.18
2022-11-07T05:34:46.712Z,76.39
2022-11-07T05:35:48.332Z,76.11
2022-11-07T05:36:49.793Z,76.34
2022-11-07T05:37:51.366Z,75.91
2022-11-07T05:38:53.008Z,76.13
2022-11-07T05:39:55.254Z,75.78
2022-11-07T05:40:56.830Z,75.81
2022-11-07T05:41:59.724Z,75.68
2022-11-07T05:43:01.683Z,75.56
2022-11-07T05:44:03.195Z,75.37
2022-11-07T05:45:04.949Z,75.29
2022-11-07T05:46:06.411Z,75.06
2022-11-07T05:47:07.947Z,74.84
2022-11-07T05:48:10.274Z,74.88
2022-11-07T05:49:11.785Z,74.59
2022-11-07T05:50:13.323Z,74.62
2022-11-07T05:51:14.769Z,74.83
2022-11-07T05:52:16.246Z,74.68
2022-11-07T05:53:18.371Z,74.70
2022-11-07T05:54:20.073Z,74.39
2022-11-07T05:55:21.604Z,74.58
2022-11-07T05:56:23.159Z,74.98
2022-11-07T05:57:24.612Z,74.95
2022-11-07T05:58:26.070Z,74.98
2022-11-07T05:59:27.790Z,74.76
2022-11-07T06:00:29.257Z,74.92
2022-11-07T06:01:30.971Z,75.27
2022-11-07T06:02:32.705Z,75.23
2022-11-07T06:03:34.264Z,75.30
2022-11-07T06:04:35.997Z,75.18
2022-11-07T06:05:40.689Z,75.46
2022-11-07T06:06:42.199Z,75.42
2022-11-07T06:07:43.669Z,75.73
2022-11-07T06:08:45.133Z,75.67
2022-11-07T06:09:46.641Z,75.93
2022-11-07T06:10:48.106Z,75.76
2022-11-07T06:11:49.779Z,75.50
2022-11-07T06:13:01.119Z,75.65
2022-11-07T06:14:02.607Z,75.52
2022-11-07T06:15:04.298Z,75.40
2022-11-07T06:16:06.234Z,75.60
2022-11-07T06:17:08.078Z,75.63
2022-11-07T06:18:12.433Z,76.01
2022-11-07T06:19:13.974Z,75.57
2022-11-07T06:20:15.565Z,75.46
2022-11-07T06:21:17.061Z,75.51
2022-11-07T06:22:18.661Z,75.28
2022-11-07T06:23:20.499Z,75.30
2022-11-07T06:24:22.098Z,75.35
2022-11-07T06:25:23.603Z,75.18
2022-11-07T06:26:25.069Z,75.17
2022-11-07T06:27:26.596Z,75.23
2022-11-07T06:28:28.124Z,74.82
2022-11-07T06:29:29.602Z,74.59
2022-11-07T06:30:31.105Z,74.59
2022-11-07T06:31:32.663Z,74.97
2022-11-07T06:32:34.471Z,74.64
2022-11-07T06:33:35.935Z,74.46
2022-11-07T06:34:37.475Z,74.59
2022-11-07T06:35:39.035Z,74.50
2022-11-07T06:36:40.683Z,74.61
2022-11-07T06:37:42.191Z,74.58
2022-11-07T06:38:43.778Z,74.49
2022-11-07T06:39:45.289Z,74.29
2022-11-07T06:40:46.825Z,74.14
2022-11-07T06:41:48.514Z,73.93
2022-11-07T06:42:50.020Z,73.98
2022-11-07T06:43:51.797Z,73.73
2022-11-07T06:44:53.308Z,73.77
2022-11-07T06:45:54.764Z,73.70
2022-11-07T06:46:56.294Z,73.64
2022-11-07T06:47:57.747Z,73.88
2022-11-07T06:48:59.239Z,73.96
2022-11-07T06:50:00.701Z,73.89
2022-11-07T06:51:02.797Z,73.77
2022-11-07T06:52:04.287Z,73.63
2022-11-07T06:53:06.706Z,73.73
2022-11-07T06:54:08.306Z,73.63
2022-11-07T06:55:09.775Z,73.47
2022-11-07T06:56:12.756Z,74.00
2022-11-07T06:57:14.282Z,74.17
2022-11-07T06:58:15.739Z,74.16
2022-11-07T06:59:17.282Z,74.16
2022-11-07T07:00:18.905Z,74.29
2022-11-07T07:01:20.438Z,73.93
2022-11-07T07:02:44.393Z,73.92
2022-11-07T07:03:43.552Z,73.86
2022-11-07T07:04:45.085Z,73.82
2022-11-07T07:05:46.783Z,73.69
2022-11-07T07:06:48.330Z,73.94
2022-11-07T07:07:49.813Z,73.87
2022-11-07T07:08:51.336Z,73.72
2022-11-07T07:09:52.938Z,73.77
2022-11-07T07:10:54.409Z,73.84
2022-11-07T07:11:55.950Z,73.88
2022-11-07T07:12:57.560Z,73.65
2022-11-07T07:14:02.128Z,73.91
2022-11-07T07:15:04.313Z,73.66
2022-11-07T07:16:05.972Z,73.74
2022-11-07T07:17:07.596Z,73.46
2022-11-07T07:18:09.089Z,73.52
2022-11-07T07:19:11.654Z,73.59
2022-11-07T07:20:13.317Z,73.72
2022-11-07T07:21:14.907Z,74.05
2022-11-07T07:22:16.451Z,73.96
2022-11-07T07:23:18.499Z,73.86
2022-11-07T07:24:20.106Z,74.08
2022-11-07T07:25:21.684Z,73.90
2022-11-07T07:26:23.243Z,73.84
2022-11-07T07:27:24.729Z,73.72
2022-11-07T07:28:26.268Z,73.95
2022-11-07T07:29:28.225Z,73.62
2022-11-07T07:30:29.753Z,73.93
2022-11-07T07:31:31.651Z,73.69
2022-11-07T07:32:35.035Z,73.64
2022-11-07T07:33:36.677Z,73.49
2022-11-07T07:34:38.177Z,73.51
2022-11-07T07:35:39.687Z,73.38
2022-11-07T07:36:41.215Z,73.20
2022-11-07T07:37:42.933Z,72.85
2022-11-07T07:38:44.435Z,72.99
2022-11-07T07:39:45.891Z,72.99
2022-11-07T07:40:47.336Z,72.78
2022-11-07T07:41:50.284Z,72.53
2022-11-07T07:42:58.787Z,72.33
2022-11-07T07:44:00.243Z,72.22
2022-11-07T07:45:01.699Z,72.00
2022-11-07T07:46:04.547Z,72.00
2022-11-07T07:47:17.600Z,71.92
2022-11-07T07:48:19.199Z,71.43
2022-11-07T07:49:20.658Z,71.39
2022-11-07T07:50:22.140Z,71.24
2022-11-07T07:51:23.667Z,71.11
2022-11-07T07:52:25.140Z,70.70
2022-11-07T07:53:26.619Z,70.60
2022-11-07T07:54:28.058Z,70.84
2022-11-07T07:55:29.606Z,71.18
2022-11-07T07:56:31.221Z,70.94
2022-11-07T07:57:32.707Z,70.60
2022-11-07T07:58:34.156Z,70.95
2022-11-07T07:59:35.707Z,70.53
2022-11-07T08:00:37.272Z,70.52
2022-11-07T08:01:38.960Z,70.43
2022-11-07T08:02:43.524Z,70.32
2022-11-07T08:04:00.844Z,69.95
2022-11-07T08:05:03.116Z,69.70
2022-11-07T08:06:05.698Z,70.31
2022-11-07T08:07:07.274Z,70.14
2022-11-07T08:08:08.734Z,69.93
2022-11-07T08:09:10.698Z,70.18
2022-11-07T08:10:39.542Z,69.94
2022-11-07T08:11:33.767Z,70.17
2022-11-07T08:12:42.794Z,70.20
2022-11-07T08:13:44.250Z,69.97
2022-11-07T08:14:45.860Z,69.86
2022-11-07T08:15:47.785Z,69.46
2022-11-07T08:16:49.455Z,69.69
2022-11-07T08:17:50.953Z,69.60
2022-11-07T08:18:52.442Z,69.51
2022-11-07T08:19:54.020Z,69.21
2022-11-07T08:20:56.052Z,69.11
2022-11-07T08:21:57.565Z,69.14
2022-11-07T08:23:02.979Z,69.16
2022-11-07T08:24:04.551Z,69.23
2022-11-07T08:25:06.415Z,69.34
2022-11-07T08:26:07.910Z,69.15
2022-11-07T08:27:09.410Z,69.05
2022-11-07T08:28:10.854Z,69.13
2022-11-07T08:29:12.414Z,69.38
2022-11-07T08:30:17.978Z,69.21
2022-11-07T08:31:19.681Z,69.04
2022-11-07T08:32:21.177Z,69.32
2022-11-07T08:33:22.755Z,69.16
2022-11-07T08:34:24.303Z,68.82
2022-11-07T08:35:25.795Z,68.60
2022-11-07T08:36:27.486Z,68.54
2022-11-07T08:37:28.933Z,68.75
2022-11-07T08:38:30.653Z,68.89
2022-11-07T08:39:32.142Z,68.87
2022-11-07T08:40:33.591Z,68.57
2022-11-07T08:41:35.069Z,68.43
2022-11-07T08:42:36.546Z,68.62
2022-11-07T08:43:38.002Z,68.63
2022-11-07T08:44:39.478Z,68.57
2022-11-07T08:45:43.178Z,68.45
2022-11-07T08:46:44.656Z,68.41
2022-11-07T08:47:46.170Z,68.61
2022-11-07T08:48:47.629Z,68.87
2022-11-07T08:49:49.107Z,68.90
2022-11-07T08:50:53.978Z,68.85
2022-11-07T08:51:55.539Z,68.77
2022-11-07T08:53:02.216Z,68.29
2022-11-07T08:54:04.359Z,68.43
2022-11-07T08:55:06.055Z,68.58
2022-11-07T08:56:08.425Z,68.63
2022-11-07T08:57:10.631Z,68.60
2022-11-07T08:58:12.150Z,68.37
2022-11-07T08:59:14.007Z,68.74
2022-11-07T09:00:15.608Z,68.61
2022-11-07T09:01:17.411Z,68.62
2022-11-07T09:03:54.789Z,68.69
2022-11-07T09:04:59.694Z,69.22
2022-11-07T09:06:01.228Z,69.32
2022-11-07T09:07:02.673Z,69.39
2022-11-07T09:08:04.355Z,69.50
2022-11-07T09:09:05.839Z,69.30
2022-11-07T09:10:07.620Z,69.53
2022-11-07T09:11:09.101Z,69.62
2022-11-07T09:12:10.561Z,69.68
2022-11-07T09:13:14.688Z,69.62
2022-11-07T09:14:16.705Z,69.48
2022-11-07T09:15:18.587Z,69.25
2022-11-07T09:16:20.200Z,69.24
2022-11-07T09:17:21.823Z,69.41
2022-11-07T09:18:23.369Z,69.21
2022-11-07T09:19:24.814Z,69.22
2022-11-07T09:20:26.313Z,69.35
2022-11-07T09:21:27.819Z,69.48
2022-11-07T09:22:29.353Z,69.32
2022-11-07T09:23:30.959Z,69.39
2022-11-07T09:24:32.471Z,69.19
2022-11-07T09:25:33.940Z,69.03
2022-11-07T09:26:35.417Z,69.02
2022-11-07T09:27:36.941Z,69.15
2022-11-07T09:28:38.525Z,68.91
2022-11-07T09:29:40.393Z,68.80
2022-11-07T09:30:41.870Z,68.65
2022-11-07T09:31:43.412Z,68.42
2022-11-07T09:32:45.848Z,68.28
2022-11-07T09:33:47.544Z,68.16
2022-11-07T09:34:55.993Z,68.01
2022-11-07T09:35:59.583Z,68.08
2022-11-07T09:37:01.979Z,68.09
2022-11-07T09:38:03.436Z,68.13
2022-11-07T09:39:04.976Z,67.82
2022-11-07T09:40:07.059Z,68.05
2022-11-07T09:41:26.959Z,68.02
2022-11-07T09:42:36.918Z,67.93
2022-11-07T09:43:42.447Z,67.88
2022-11-07T09:44:43.942Z,67.54
2022-11-07T09:45:53.538Z,67.49
2022-11-07T09:46:59.534Z,67.83
2022-11-07T09:48:02.832Z,67.97
2022-11-07T09:49:10.229Z,67.96
2022-11-07T09:50:12.822Z,67.74
2022-11-07T09:51:15.990Z,67.88
2022-11-07T09:52:23.734Z,67.69
2022-11-07T09:53:25.157Z,67.87
2022-11-07T09:54:27.929Z,67.39
2022-11-07T09:55:33.861Z,67.33
2022-11-07T09:56:35.413Z,67.39
2022-11-07T09:57:36.979Z,67.38
2022-11-07T09:58:42.164Z,67.53
2022-11-07T09:59:57.127Z,67.44
2022-11-07T10:01:03.087Z,67.08
2022-11-07T10:02:10.153Z,67.23
2022-11-07T10:03:11.795Z,67.25
2022-11-07T10:04:24.863Z,66.30
2022-11-07T10:05:44.271Z,66.43
2022-11-07T10:06:56.141Z,66.87
2022-11-07T10:08:04.559Z,66.79
2022-11-07T10:09:29.225Z,66.58
2022-11-07T10:10:42.644Z,65.81
2022-11-07T10:12:00.217Z,66.49
2022-11-07T10:13:22.136Z,66.51
2022-11-07T10:14:26.326Z,65.56
2022-11-07T10:15:28.392Z,66.14
2022-11-07T10:16:48.226Z,65.35
2022-11-07T10:18:02.158Z,66.07
2022-11-07T10:19:03.681Z,65.46
2022-11-07T10:20:08.206Z,65.48
2022-11-07T10:21:36.940Z,65.90
2022-11-07T10:22:44.917Z,65.96
2022-11-07T10:23:50.804Z,65.77
2022-11-07T10:24:59.672Z,65.58
2022-11-07T10:26:04.632Z,65.83
2022-11-07T10:27:10.338Z,65.76
2022-11-07T10:28:14.695Z,65.81
2022-11-07T10:29:17.120Z,65.55
2022-11-07T10:30:19.590Z,65.27
2022-11-07T10:31:21.101Z,65.67
2022-11-07T10:32:22.544Z,65.44
2022-11-07T10:33:33.099Z,65.56
2022-11-07T10:34:42.097Z,65.31
2022-11-07T10:35:45.097Z,65.61
2022-11-07T10:36:46.627Z,64.54
2022-11-07T10:37:54.413Z,65.03
2022-11-07T10:38:55.971Z,64.36
2022-11-07T10:39:57.550Z,64.27
2022-11-07T10:40:59.053Z,64.44
2022-11-07T10:42:02.858Z,64.53
2022-11-07T10:43:07.238Z,64.58
2022-11-07T10:44:13.241Z,63.77
2022-11-07T10:45:15.126Z,63.93
2022-11-07T10:46:17.820Z,63.70
2022-11-07T10:47:20.165Z,63.27
2022-11-07T10:48:21.604Z,63.38
2022-11-07T10:49:26.686Z,62.79
2022-11-07T10:50:28.678Z,62.75
2022-11-07T10:51:36.859Z,62.53
2022-11-07T10:52:38.426Z,62.85
2022-11-07T10:53:42.842Z,62.43
2022-11-07T10:54:47.259Z,62.06
2022-11-07T10:55:49.562Z,61.68
2022-11-07T10:57:09.145Z,62.35
2022-11-07T10:58:17.561Z,62.39
2022-11-07T10:59:28.992Z,62.87
2022-11-07T11:00:33.495Z,62.60
2022-11-07T11:01:35.061Z,62.99
2022-11-07T11:02:47.186Z,62.06
2022-11-07T11:03:49.659Z,62.20
2022-11-07T11:04:57.794Z,62.30
2022-11-07T11:06:08.659Z,62.55
2022-11-07T11:07:11.373Z,62.41
2022-11-07T11:08:14.653Z,62.40
2022-11-07T11:09:17.307Z,62.22
2022-11-07T11:10:19.086Z,61.88
2022-11-07T11:11:26.679Z,61.93
2022-11-07T11:12:32.156Z,62.27
2022-11-07T11:13:35.934Z,62.06
2022-11-07T11:14:37.398Z,62.74
2022-11-07T11:15:45.856Z,62.08
2022-11-07T11:16:48.819Z,62.02
2022-11-07T11:18:02.522Z,62.33
2022-11-07T11:19:04.117Z,62.46
2022-11-07T11:20:06.096Z,62.58
2022-11-07T11:21:07.818Z,62.38
2022-11-07T11:22:12.557Z,62.60
2022-11-07T11:23:26.310Z,62.12
2022-11-07T11:24:30.635Z,62.28
2022-11-07T11:25:32.106Z,62.29
2022-11-07T11:26:35.286Z,62.37
2022-11-07T11:27:36.739Z,62.31
2022-11-07T11:28:42.495Z,62.18
2022-11-07T11:29:48.162Z,62.31
2022-11-07T11:30:51.208Z,62.47
2022-11-07T11:31:52.823Z,62.67
2022-11-07T11:32:57.143Z,62.50
2022-11-07T11:34:00.693Z,62.72
2022-11-07T11:35:02.193Z,62.43
2022-11-07T11:36:04.241Z,62.61
2022-11-07T11:37:21.298Z,61.56
2022-11-07T11:38:25.890Z,61.92
2022-11-07T11:39:36.901Z,62.25
2022-11-07T11:40:39.070Z,61.76
2022-11-07T11:41:47.801Z,61.74
2022-11-07T11:43:07.790Z,61.68
2022-11-07T11:44:18.350Z,62.27
2022-11-07T11:45:38.252Z,61.44
2022-11-07T11:46:50.682Z,61.63
2022-11-07T11:47:58.846Z,61.52
2022-11-07T11:49:01.339Z,61.60
2022-11-07T11:50:12.629Z,61.31
2022-11-07T11:51:33.213Z,61.27
2022-11-07T11:52:35.623Z,61.64
2022-11-07T11:53:37.082Z,61.55
2022-11-07T11:54:38.538Z,61.61
2022-11-07T11:55:41.592Z,61.65
2022-11-07T11:56:46.024Z,61.26
2022-11-07T11:57:54.651Z,61.44
2022-11-07T11:59:06.785Z,61.44
2022-11-07T12:00:17.905Z,61.67
2022-11-07T12:01:22.668Z,61.07
2022-11-07T12:02:30.191Z,61.09
2022-11-07T12:03:56.856Z,60.50
2022-11-07T12:04:58.593Z,61.16
2022-11-07T12:06:12.924Z,61.03
2022-11-07T12:07:20.576Z,61.22
2022-11-07T12:08:34.043Z,61.37
2022-11-07T12:09:41.984Z,61.43
2022-11-07T12:10:55.597Z,61.70
2022-11-07T12:11:57.234Z,61.63
2022-11-07T12:13:17.374Z,61.09
2022-11-07T12:14:21.986Z,61.35
2022-11-07T12:15:31.989Z,61.38
2022-11-07T12:16:42.235Z,61.34
2022-11-07T12:17:54.432Z,61.52
2022-11-07T12:19:02.831Z,61.21
2022-11-07T12:20:04.587Z,61.02
2022-11-07T12:21:06.026Z,61.04
2022-11-07T12:22:26.243Z,60.71
2022-11-07T12:23:30.478Z,60.71
2022-11-07T12:24:50.817Z,60.86
2022-11-07T12:25:52.340Z,61.14
2022-11-07T12:26:57.710Z,61.39
2022-11-07T12:28:22.611Z,61.44
2022-11-07T12:29:26.692Z,60.92
2022-11-07T12:30:28.622Z,60.95
2022-11-07T12:31:39.635Z,61.03
2022-11-07T12:32:41.089Z,61.10
2022-11-07T12:33:45.638Z,61.04
2022-11-07T12:34:56.160Z,61.32
2022-11-07T12:36:16.711Z,61.18
2022-11-07T12:37:22.816Z,60.85
2022-11-07T12:38:43.024Z,60.50
2022-11-07T12:39:54.496Z,60.60
2022-11-07T12:41:07.692Z,61.12
2022-11-07T12:42:25.145Z,60.32
2022-11-07T12:43:31.154Z,60.24
2022-11-07T12:44:45.362Z,60.22
2022-11-07T12:46:05.929Z,60.69
2022-11-07T12:47:10.274Z,60.18
2022-11-07T12:48:30.122Z,60.21
2022-11-07T12:49:40.757Z,60.76
2022-11-07T12:51:01.135Z,60.90
2022-11-07T12:52:02.835Z,60.48
2022-11-07T12:53:11.309Z,60.06
2022-11-07T12:54:31.435Z,60.03
2022-11-07T12:55:33.047Z,59.40
2022-11-07T12:56:35.390Z,59.42
2022-11-07T12:57:37.018Z,59.39
2022-11-07T12:58:38.733Z,58.53
2022-11-07T12:59:40.342Z,59.16
2022-11-07T13:00:41.884Z,58.90
2022-11-07T13:02:01.170Z,58.46
2022-11-07T13:03:02.863Z,58.63
2022-11-07T13:04:06.043Z,58.90
2022-11-07T13:05:26.268Z,59.27
2022-11-07T13:06:33.830Z,59.20
2022-11-07T13:07:38.037Z,59.11
2022-11-07T13:08:57.304Z,58.85
2022-11-07T13:10:03.830Z,59.18
2022-11-07T13:11:14.545Z,59.36
2022-11-07T13:12:33.431Z,58.66
2022-11-07T13:13:43.662Z,58.70
2022-11-07T13:14:45.636Z,58.89
2022-11-07T13:16:14.162Z,58.67
2022-11-07T13:17:23.590Z,58.81
2022-11-07T13:18:26.153Z,59.08
2022-11-07T13:19:32.995Z,58.99
2022-11-07T13:20:35.658Z,59.17
2022-11-07T13:21:43.113Z,58.68
2022-11-07T13:22:44.626Z,59.13
2022-11-07T13:23:47.626Z,58.57
2022-11-07T13:24:51.732Z,59.14
2022-11-07T13:26:03.980Z,59.42
2022-11-07T13:27:14.957Z,59.22
2022-11-07T13:28:25.817Z,59.08
2022-11-07T13:29:30.386Z,58.76
2022-11-07T13:30:35.839Z,58.80
2022-11-07T13:31:38.431Z,58.93
2022-11-07T13:32:43.317Z,59.30
2022-11-07T13:33:44.901Z,59.33
2022-11-07T13:34:49.298Z,59.17
2022-11-07T13:35:54.767Z,59.43
2022-11-07T13:37:05.043Z,59.35
2022-11-07T13:38:14.322Z,58.95
2022-11-07T13:39:15.963Z,59.42
2022-11-07T13:40:23.397Z,59.49
2022-11-07T13:41:24.993Z,59.55
2022-11-07T13:42:26.958Z,59.74
2022-11-07T13:43:54.391Z,59.91
2022-11-07T13:44:57.262Z,59.88